LOT4PJ EDLW-EPKT
Flight info
| Callsign | LOT4PJ |
|---|---|
| Flight time | 1h 20m |
| Altitude | 19000 |
| Route | NUDGO3Q NUDGO Z858 ESADU/N0453F370 DCT WRB DCT NOMKA DCT LASIS DCT GODLO T714 MOFKE MOFKE2D |
| Aircraft | B38M/M-SDE1FGHILORVWXY/HB1 |
Departure
| Time | 2026-05-07 13:32 |
|---|---|
| Airport | Dortmund Airport (EDLW) |
Arrival
| Time | 2026-05-07 14:52 |
|---|---|
| Airport | Katowice Wojciech Korfanty International Airport (EPKT) |
| Time | Latitude | Longitude | Altitude | Speed | Heading |
|---|---|---|---|---|---|
| 2026-05-07 13:06 | 51.51599 | 7.61366 | 435 ft | 0 kts | 150° |
| 2026-05-07 13:13 | 51.51600 | 7.61366 | 435 ft | 1 kts | 150° |
| 2026-05-07 13:14 | 51.51600 | 7.61365 | 435 ft | 0 kts | 150° |
| 2026-05-07 13:25 | 51.51611 | 7.61356 | 434 ft | 3 kts | 158° |
| 2026-05-07 13:25 | 51.51630 | 7.61348 | 423 ft | 3 kts | 173° |
| 2026-05-07 13:25 | 51.51648 | 7.61346 | 422 ft | 2 kts | 179° |
| 2026-05-07 13:25 | 51.51650 | 7.61346 | 421 ft | 1 kts | 179° |
| 2026-05-07 13:26 | 51.51650 | 7.61345 | 421 ft | 0 kts | 179° |
| 2026-05-07 13:28 | 51.51649 | 7.61345 | 421 ft | 0 kts | 185° |
| 2026-05-07 13:29 | 51.51647 | 7.61342 | 422 ft | 1 kts | 218° |
| 2026-05-07 13:29 | 51.51648 | 7.61279 | 424 ft | 12 kts | 272° |
| 2026-05-07 13:29 | 51.51606 | 7.61120 | 419 ft | 19 kts | 244° |
| 2026-05-07 13:29 | 51.51538 | 7.60898 | 428 ft | 25 kts | 240° |
| 2026-05-07 13:30 | 51.51442 | 7.60629 | 427 ft | 30 kts | 240° |
| 2026-05-07 13:30 | 51.51362 | 7.60365 | 429 ft | 17 kts | 271° |
| 2026-05-07 13:30 | 51.51458 | 7.60242 | 416 ft | 22 kts | 6° |
| 2026-05-07 13:30 | 51.51531 | 7.60365 | 416 ft | 14 kts | 61° |
| 2026-05-07 13:31 | 51.51565 | 7.60469 | 421 ft | 1 kts | 61° |
| 2026-05-07 13:31 | 51.51582 | 7.60517 | 418 ft | 9 kts | 60° |
| 2026-05-07 13:31 | 51.51656 | 7.60726 | 419 ft | 56 kts | 59° |
| 2026-05-07 13:31 | 51.52020 | 7.61735 | 416 ft | 150 kts | 58° |
| 2026-05-07 13:32 | 51.52596 | 7.63512 | 739 ft | 203 kts | 64° |
| 2026-05-07 13:32 | 51.53240 | 7.65710 | 1832 ft | 226 kts | 62° |
| 2026-05-07 13:32 | 51.54003 | 7.67958 | 3336 ft | 234 kts | 57° |
| 2026-05-07 13:32 | 51.54756 | 7.69914 | 4572 ft | 242 kts | 56° |
| 2026-05-07 13:33 | 51.55655 | 7.72328 | 5576 ft | 262 kts | 59° |
| 2026-05-07 13:33 | 51.56167 | 7.75234 | 6496 ft | 284 kts | 88° |
| 2026-05-07 13:33 | 51.56003 | 7.77382 | 7080 ft | 299 kts | 104° |
| 2026-05-07 13:33 | 51.54799 | 7.81611 | 8138 ft | 328 kts | 115° |
| 2026-05-07 13:34 | 51.53790 | 7.85010 | 8910 ft | 346 kts | 115° |
| 2026-05-07 13:34 | 51.51876 | 7.90841 | 10457 ft | 362 kts | 128° |
| 2026-05-07 13:34 | 51.50124 | 7.93777 | 11453 ft | 366 kts | 134° |
| 2026-05-07 13:35 | 51.48348 | 7.96735 | 12327 ft | 374 kts | 134° |
| 2026-05-07 13:35 | 51.46520 | 7.99780 | 13189 ft | 382 kts | 134° |
| 2026-05-07 13:35 | 51.44660 | 8.02879 | 14103 ft | 386 kts | 134° |
| 2026-05-07 13:35 | 51.42860 | 8.06103 | 14546 ft | 392 kts | 124° |
| 2026-05-07 13:36 | 51.41783 | 8.10054 | 14594 ft | 387 kts | 101° |
| 2026-05-07 13:36 | 51.41616 | 8.14325 | 14765 ft | 388 kts | 88° |
| 2026-05-07 13:36 | 51.41608 | 8.18665 | 14901 ft | 390 kts | 90° |
| 2026-05-07 13:36 | 51.41573 | 8.23022 | 15494 ft | 392 kts | 90° |
| 2026-05-07 13:37 | 51.41533 | 8.27390 | 16370 ft | 394 kts | 90° |
| 2026-05-07 13:37 | 51.41491 | 8.31826 | 17097 ft | 400 kts | 90° |
| 2026-05-07 13:37 | 51.41446 | 8.36298 | 17941 ft | 403 kts | 90° |
| 2026-05-07 13:37 | 51.41399 | 8.40757 | 18602 ft | 409 kts | 91° |
| 2026-05-07 13:38 | 51.41352 | 8.45344 | 19267 ft | 412 kts | 91° |
| 2026-05-07 13:38 | 51.41303 | 8.49935 | 19971 ft | 415 kts | 91° |
| 2026-05-07 13:38 | 51.41253 | 8.54564 | 20545 ft | 420 kts | 91° |
| 2026-05-07 13:38 | 51.41200 | 8.59261 | 21234 ft | 423 kts | 91° |
| 2026-05-07 13:39 | 51.41145 | 8.63979 | 21886 ft | 426 kts | 91° |
| 2026-05-07 13:39 | 51.41086 | 8.68759 | 22505 ft | 430 kts | 91° |
| 2026-05-07 13:39 | 51.41094 | 8.73524 | 23490 ft | 424 kts | 84° |
| 2026-05-07 13:39 | 51.41784 | 8.78076 | 24342 ft | 419 kts | 68° |
| 2026-05-07 13:40 | 51.42894 | 8.82347 | 25222 ft | 412 kts | 67° |
| 2026-05-07 13:40 | 51.43993 | 8.86539 | 26113 ft | 405 kts | 67° |
| 2026-05-07 13:40 | 51.45089 | 8.90662 | 27024 ft | 397 kts | 67° |
| 2026-05-07 13:40 | 51.46161 | 8.94663 | 27965 ft | 388 kts | 67° |
| 2026-05-07 13:41 | 51.47215 | 8.98588 | 28944 ft | 378 kts | 67° |
| 2026-05-07 13:41 | 51.48240 | 9.02401 | 29954 ft | 366 kts | 67° |
| 2026-05-07 13:41 | 51.49230 | 9.06085 | 30846 ft | 352 kts | 67° |
| 2026-05-07 13:41 | 51.50072 | 9.09622 | 31683 ft | 337 kts | 78° |
| 2026-05-07 13:42 | 51.50261 | 9.13270 | 32484 ft | 321 kts | 93° |
| 2026-05-07 13:42 | 51.50194 | 9.16747 | 33297 ft | 303 kts | 89° |
| 2026-05-07 13:42 | 51.50152 | 9.20080 | 33809 ft | 296 kts | 91° |
| 2026-05-07 13:42 | 51.50072 | 9.23393 | 33996 ft | 298 kts | 91° |
| 2026-05-07 13:43 | 51.49974 | 9.26741 | 34057 ft | 302 kts | 92° |
| 2026-05-07 13:43 | 51.49740 | 9.33607 | 34107 ft | 316 kts | 92° |
| 2026-05-07 13:44 | 51.49470 | 9.40864 | 34041 ft | 335 kts | 93° |
| 2026-05-07 13:44 | 51.49175 | 9.48522 | 34047 ft | 353 kts | 93° |
| 2026-05-07 13:45 | 51.48857 | 9.56631 | 34042 ft | 373 kts | 93° |
| 2026-05-07 13:45 | 51.48689 | 9.60837 | 34036 ft | 384 kts | 92° |
| 2026-05-07 13:45 | 51.48516 | 9.65161 | 34039 ft | 394 kts | 93° |
| 2026-05-07 13:45 | 51.48335 | 9.69620 | 34039 ft | 405 kts | 93° |
| 2026-05-07 13:46 | 51.48150 | 9.74151 | 34065 ft | 414 kts | 94° |
| 2026-05-07 13:46 | 51.47761 | 9.83533 | 34137 ft | 433 kts | 94° |
| 2026-05-07 13:47 | 51.47344 | 9.93387 | 34210 ft | 451 kts | 94° |
| 2026-05-07 13:47 | 51.46901 | 10.03652 | 34284 ft | 469 kts | 94° |
| 2026-05-07 13:47 | 51.46671 | 10.08899 | 34482 ft | 472 kts | 94° |
| 2026-05-07 13:48 | 51.46439 | 10.14140 | 34719 ft | 475 kts | 94° |
| 2026-05-07 13:48 | 51.46201 | 10.19443 | 34896 ft | 478 kts | 94° |
| 2026-05-07 13:48 | 51.45963 | 10.24725 | 35262 ft | 474 kts | 94° |
| 2026-05-07 13:48 | 51.45728 | 10.29877 | 35906 ft | 466 kts | 95° |
| 2026-05-07 13:49 | 51.45490 | 10.35034 | 36413 ft | 462 kts | 95° |
| 2026-05-07 13:49 | 51.45250 | 10.40196 | 36717 ft | 463 kts | 95° |
| 2026-05-07 13:49 | 51.45010 | 10.45361 | 36982 ft | 465 kts | 95° |
| 2026-05-07 13:50 | 51.44940 | 10.55711 | 37074 ft | 464 kts | 89° |
| 2026-05-07 13:50 | 51.45066 | 10.66020 | 37028 ft | 465 kts | 90° |
| 2026-05-07 13:51 | 51.45148 | 10.76406 | 37028 ft | 465 kts | 90° |
| 2026-05-07 13:51 | 51.45219 | 10.86783 | 37033 ft | 465 kts | 90° |
| 2026-05-07 13:52 | 51.45281 | 10.97152 | 37047 ft | 465 kts | 90° |
| 2026-05-07 13:52 | 51.45333 | 11.07476 | 37029 ft | 465 kts | 90° |
| 2026-05-07 13:53 | 51.45376 | 11.17857 | 37031 ft | 466 kts | 90° |
| 2026-05-07 13:53 | 51.45410 | 11.28262 | 37031 ft | 466 kts | 91° |
| 2026-05-07 13:54 | 51.45435 | 11.38628 | 37045 ft | 466 kts | 91° |
| 2026-05-07 13:54 | 51.45451 | 11.49024 | 37023 ft | 465 kts | 91° |
| 2026-05-07 13:55 | 51.45457 | 11.59408 | 37014 ft | 466 kts | 91° |
| 2026-05-07 13:55 | 51.45455 | 11.69737 | 37037 ft | 466 kts | 91° |
| 2026-05-07 13:56 | 51.45443 | 11.80111 | 37025 ft | 466 kts | 91° |
| 2026-05-07 13:56 | 51.45422 | 11.90500 | 37033 ft | 465 kts | 91° |
| 2026-05-07 13:57 | 51.45392 | 12.00887 | 37026 ft | 465 kts | 91° |
| 2026-05-07 13:57 | 51.45354 | 12.10726 | 37017 ft | 466 kts | 92° |
| 2026-05-07 13:58 | 51.45307 | 12.21087 | 37044 ft | 466 kts | 92° |
| 2026-05-07 13:58 | 51.45250 | 12.31476 | 37046 ft | 466 kts | 92° |
| 2026-05-07 13:59 | 51.45184 | 12.41798 | 37045 ft | 466 kts | 92° |
| 2026-05-07 13:59 | 51.45109 | 12.52166 | 37035 ft | 466 kts | 92° |
| 2026-05-07 14:00 | 51.45024 | 12.62573 | 37028 ft | 466 kts | 92° |
| 2026-05-07 14:00 | 51.44930 | 12.72970 | 37031 ft | 467 kts | 93° |
| 2026-05-07 14:01 | 51.44827 | 12.83331 | 37018 ft | 466 kts | 93° |
| 2026-05-07 14:01 | 51.44715 | 12.93704 | 37022 ft | 466 kts | 93° |
| 2026-05-07 14:02 | 51.44594 | 13.04118 | 37018 ft | 466 kts | 93° |
| 2026-05-07 14:02 | 51.44462 | 13.14547 | 37024 ft | 467 kts | 94° |
| 2026-05-07 14:03 | 51.44323 | 13.24896 | 37017 ft | 467 kts | 94° |
| 2026-05-07 14:03 | 51.44175 | 13.35269 | 37016 ft | 467 kts | 94° |
| 2026-05-07 14:04 | 51.44016 | 13.45675 | 37014 ft | 466 kts | 94° |
| 2026-05-07 14:04 | 51.43849 | 13.56081 | 37003 ft | 466 kts | 94° |
| 2026-05-07 14:05 | 51.43672 | 13.66462 | 37014 ft | 466 kts | 94° |
| 2026-05-07 14:05 | 51.43487 | 13.76821 | 37007 ft | 466 kts | 94° |
| 2026-05-07 14:06 | 51.43292 | 13.87206 | 37007 ft | 466 kts | 94° |
| 2026-05-07 14:06 | 51.43088 | 13.97583 | 37002 ft | 466 kts | 95° |
| 2026-05-07 14:07 | 51.42876 | 14.07910 | 36999 ft | 466 kts | 95° |
| 2026-05-07 14:07 | 51.42654 | 14.18267 | 37007 ft | 466 kts | 95° |
| 2026-05-07 14:08 | 51.42423 | 14.28655 | 37006 ft | 466 kts | 95° |
| 2026-05-07 14:08 | 51.42182 | 14.39029 | 36999 ft | 466 kts | 95° |
| 2026-05-07 14:09 | 51.41933 | 14.49412 | 37000 ft | 466 kts | 95° |
| 2026-05-07 14:09 | 51.41678 | 14.59718 | 36996 ft | 468 kts | 95° |
| 2026-05-07 14:10 | 51.41413 | 14.70136 | 37003 ft | 468 kts | 95° |
| 2026-05-07 14:10 | 51.41139 | 14.80553 | 37002 ft | 467 kts | 95° |
| 2026-05-07 14:11 | 51.40857 | 14.90962 | 36997 ft | 468 kts | 96° |
| 2026-05-07 14:11 | 51.40480 | 14.96090 | 36974 ft | 461 kts | 108° |
| 2026-05-07 14:11 | 51.39410 | 15.00892 | 36997 ft | 457 kts | 115° |
| 2026-05-07 14:12 | 51.37074 | 15.10401 | 37007 ft | 460 kts | 116° |
| 2026-05-07 14:12 | 51.34674 | 15.19881 | 36998 ft | 459 kts | 116° |
| 2026-05-07 14:13 | 51.32269 | 15.29293 | 36984 ft | 459 kts | 116° |
| 2026-05-07 14:13 | 51.29848 | 15.38719 | 37000 ft | 459 kts | 116° |
| 2026-05-07 14:14 | 51.27413 | 15.48163 | 36976 ft | 458 kts | 116° |
| 2026-05-07 14:14 | 51.24998 | 15.57490 | 36989 ft | 457 kts | 117° |
| 2026-05-07 14:15 | 51.22565 | 15.66849 | 36984 ft | 457 kts | 117° |
| 2026-05-07 14:15 | 51.20119 | 15.76219 | 36936 ft | 453 kts | 117° |
| 2026-05-07 14:15 | 51.18908 | 15.80840 | 36236 ft | 452 kts | 117° |
| 2026-05-07 14:16 | 51.17691 | 15.85475 | 35549 ft | 452 kts | 117° |
| 2026-05-07 14:16 | 51.16481 | 15.90080 | 34864 ft | 451 kts | 118° |
| 2026-05-07 14:16 | 51.15265 | 15.94690 | 34224 ft | 449 kts | 118° |
| 2026-05-07 14:16 | 51.14059 | 15.99260 | 33510 ft | 446 kts | 119° |
| 2026-05-07 14:17 | 51.12884 | 16.03704 | 32297 ft | 443 kts | 120° |
| 2026-05-07 14:17 | 51.11687 | 16.08219 | 30993 ft | 442 kts | 120° |
| 2026-05-07 14:17 | 51.10495 | 16.12708 | 30313 ft | 438 kts | 121° |
| 2026-05-07 14:17 | 51.09301 | 16.17196 | 30094 ft | 441 kts | 121° |
| 2026-05-07 14:18 | 51.08102 | 16.21694 | 29955 ft | 442 kts | 121° |
| 2026-05-07 14:18 | 51.06114 | 16.29133 | 29954 ft | 437 kts | 121° |
| 2026-05-07 14:19 | 51.03745 | 16.37968 | 29955 ft | 430 kts | 121° |
| 2026-05-07 14:19 | 51.02601 | 16.42235 | 28859 ft | 420 kts | 121° |
| 2026-05-07 14:19 | 51.01435 | 16.46555 | 27024 ft | 430 kts | 121° |
| 2026-05-07 14:19 | 51.00252 | 16.50973 | 25540 ft | 436 kts | 119° |
| 2026-05-07 14:20 | 50.99071 | 16.55446 | 25168 ft | 440 kts | 119° |
| 2026-05-07 14:20 | 50.97883 | 16.59929 | 24993 ft | 441 kts | 119° |
| 2026-05-07 14:20 | 50.96695 | 16.64402 | 24958 ft | 438 kts | 119° |
| 2026-05-07 14:20 | 50.95514 | 16.68841 | 24964 ft | 435 kts | 119° |
| 2026-05-07 14:21 | 50.94342 | 16.73238 | 24933 ft | 432 kts | 120° |
| 2026-05-07 14:21 | 50.93191 | 16.77542 | 24964 ft | 429 kts | 120° |
| 2026-05-07 14:21 | 50.92027 | 16.81891 | 24961 ft | 427 kts | 120° |
| 2026-05-07 14:21 | 50.90868 | 16.86213 | 24957 ft | 426 kts | 120° |
| 2026-05-07 14:22 | 50.89709 | 16.90528 | 24978 ft | 424 kts | 120° |
| 2026-05-07 14:22 | 50.88554 | 16.94820 | 24978 ft | 423 kts | 120° |
| 2026-05-07 14:22 | 50.87401 | 16.99095 | 24969 ft | 422 kts | 121° |
| 2026-05-07 14:22 | 50.86247 | 17.03368 | 24965 ft | 421 kts | 121° |
| 2026-05-07 14:23 | 50.85095 | 17.07624 | 24963 ft | 420 kts | 121° |
| 2026-05-07 14:23 | 50.83962 | 17.11814 | 24494 ft | 407 kts | 121° |
| 2026-05-07 14:23 | 50.82829 | 17.15926 | 23002 ft | 412 kts | 120° |
| 2026-05-07 14:23 | 50.81671 | 17.20123 | 21161 ft | 421 kts | 119° |
| 2026-05-07 14:24 | 50.80489 | 17.24413 | 19358 ft | 430 kts | 118° |
| 2026-05-07 14:24 | 50.79309 | 17.28694 | 17972 ft | 427 kts | 117° |
| 2026-05-07 14:24 | 50.78125 | 17.32972 | 16593 ft | 420 kts | 117° |
| 2026-05-07 14:24 | 50.76964 | 17.37161 | 15469 ft | 411 kts | 117° |
| 2026-05-07 14:25 | 50.75824 | 17.41267 | 14467 ft | 405 kts | 117° |
| 2026-05-07 14:25 | 50.74703 | 17.45299 | 13472 ft | 395 kts | 117° |
| 2026-05-07 14:25 | 50.73608 | 17.49232 | 12413 ft | 388 kts | 116° |
| 2026-05-07 14:25 | 50.72551 | 17.53095 | 11385 ft | 382 kts | 116° |
| 2026-05-07 14:26 | 50.71505 | 17.56913 | 10437 ft | 376 kts | 116° |
| 2026-05-07 14:26 | 50.70489 | 17.60613 | 9993 ft | 359 kts | 116° |
| 2026-05-07 14:26 | 50.69502 | 17.64198 | 9484 ft | 353 kts | 116° |
| 2026-05-07 14:26 | 50.68541 | 17.67687 | 8923 ft | 350 kts | 116° |
| 2026-05-07 14:27 | 50.67576 | 17.71185 | 8355 ft | 347 kts | 116° |
| 2026-05-07 14:27 | 50.66617 | 17.74654 | 7815 ft | 344 kts | 116° |
| 2026-05-07 14:27 | 50.65663 | 17.78104 | 7506 ft | 342 kts | 116° |
| 2026-05-07 14:27 | 50.64710 | 17.81539 | 7433 ft | 342 kts | 116° |
| 2026-05-07 14:28 | 50.63752 | 17.84986 | 7432 ft | 342 kts | 116° |
| 2026-05-07 14:28 | 50.62836 | 17.88287 | 7437 ft | 316 kts | 116° |
| 2026-05-07 14:28 | 50.61986 | 17.91343 | 7444 ft | 295 kts | 116° |
| 2026-05-07 14:28 | 50.61173 | 17.94255 | 7449 ft | 287 kts | 117° |
| 2026-05-07 14:29 | 50.60275 | 17.97046 | 7474 ft | 286 kts | 121° |
| 2026-05-07 14:29 | 50.59375 | 17.99750 | 7446 ft | 286 kts | 120° |
| 2026-05-07 14:29 | 50.58736 | 18.02749 | 7416 ft | 289 kts | 98° |
| 2026-05-07 14:29 | 50.58604 | 18.05895 | 7422 ft | 292 kts | 95° |
| 2026-05-07 14:30 | 50.58487 | 18.09085 | 7447 ft | 292 kts | 95° |
| 2026-05-07 14:30 | 50.58380 | 18.12284 | 7434 ft | 295 kts | 95° |
| 2026-05-07 14:30 | 50.58273 | 18.15499 | 7428 ft | 293 kts | 95° |
| 2026-05-07 14:30 | 50.58179 | 18.18653 | 7445 ft | 292 kts | 94° |
| 2026-05-07 14:31 | 50.58074 | 18.21843 | 7550 ft | 292 kts | 89° |
| 2026-05-07 14:31 | 50.57967 | 18.25091 | 7462 ft | 306 kts | 95° |
| 2026-05-07 14:31 | 50.57873 | 18.28489 | 7293 ft | 311 kts | 94° |
| 2026-05-07 14:31 | 50.57779 | 18.31808 | 7327 ft | 297 kts | 95° |
| 2026-05-07 14:32 | 50.57679 | 18.35010 | 7144 ft | 290 kts | 95° |
| 2026-05-07 14:32 | 50.57580 | 18.38170 | 6944 ft | 288 kts | 95° |
| 2026-05-07 14:32 | 50.57480 | 18.41327 | 6922 ft | 289 kts | 95° |
| 2026-05-07 14:32 | 50.57375 | 18.44478 | 6930 ft | 288 kts | 95° |
| 2026-05-07 14:33 | 50.57259 | 18.47632 | 6577 ft | 292 kts | 95° |
| 2026-05-07 14:33 | 50.57138 | 18.50895 | 6425 ft | 306 kts | 95° |
| 2026-05-07 14:33 | 50.57010 | 18.54340 | 6423 ft | 324 kts | 95° |
| 2026-05-07 14:33 | 50.56877 | 18.57927 | 6409 ft | 341 kts | 95° |
| 2026-05-07 14:34 | 50.56735 | 18.61739 | 6411 ft | 348 kts | 95° |
| 2026-05-07 14:34 | 50.56593 | 18.65494 | 6412 ft | 351 kts | 95° |
| 2026-05-07 14:34 | 50.56446 | 18.69352 | 6427 ft | 352 kts | 95° |
| 2026-05-07 14:34 | 50.56366 | 18.73200 | 6440 ft | 354 kts | 89° |
| 2026-05-07 14:35 | 50.56420 | 18.77115 | 6483 ft | 362 kts | 89° |
| 2026-05-07 14:35 | 50.56457 | 18.81097 | 6406 ft | 364 kts | 90° |
| 2026-05-07 14:35 | 50.56493 | 18.85087 | 6372 ft | 366 kts | 90° |
| 2026-05-07 14:35 | 50.56521 | 18.89054 | 6319 ft | 363 kts | 90° |
| 2026-05-07 14:36 | 50.56543 | 18.93027 | 6371 ft | 363 kts | 91° |
| 2026-05-07 14:36 | 50.56565 | 18.96999 | 6399 ft | 364 kts | 91° |
| 2026-05-07 14:36 | 50.56563 | 19.00969 | 6416 ft | 360 kts | 92° |
| 2026-05-07 14:36 | 50.56539 | 19.04895 | 6411 ft | 362 kts | 91° |
| 2026-05-07 14:37 | 50.56516 | 19.08867 | 6419 ft | 363 kts | 92° |
| 2026-05-07 14:37 | 50.56468 | 19.16793 | 6300 ft | 359 kts | 91° |
| 2026-05-07 14:37 | 50.56443 | 19.20694 | 5980 ft | 351 kts | 92° |
| 2026-05-07 14:38 | 50.56418 | 19.24422 | 5784 ft | 329 kts | 92° |
| 2026-05-07 14:38 | 50.56397 | 19.27853 | 5607 ft | 307 kts | 92° |
| 2026-05-07 14:38 | 50.56378 | 19.31150 | 5390 ft | 289 kts | 92° |
| 2026-05-07 14:38 | 50.56357 | 19.34176 | 5190 ft | 273 kts | 92° |
| 2026-05-07 14:39 | 50.56338 | 19.37065 | 5018 ft | 256 kts | 92° |
| 2026-05-07 14:39 | 50.56321 | 19.39738 | 4998 ft | 231 kts | 92° |
| 2026-05-07 14:39 | 50.56307 | 19.42158 | 4971 ft | 210 kts | 92° |
| 2026-05-07 14:39 | 50.56293 | 19.44392 | 5017 ft | 206 kts | 92° |
| 2026-05-07 14:40 | 50.56277 | 19.46641 | 4983 ft | 205 kts | 92° |
| 2026-05-07 14:40 | 50.56263 | 19.48848 | 4969 ft | 197 kts | 92° |
| 2026-05-07 14:40 | 50.56248 | 19.50987 | 4964 ft | 195 kts | 92° |
| 2026-05-07 14:40 | 50.56235 | 19.53109 | 4932 ft | 193 kts | 92° |
| 2026-05-07 14:41 | 50.56222 | 19.55214 | 4912 ft | 189 kts | 92° |
| 2026-05-07 14:41 | 50.56210 | 19.57253 | 4918 ft | 188 kts | 92° |
| 2026-05-07 14:41 | 50.56186 | 19.59317 | 4919 ft | 188 kts | 96° |
| 2026-05-07 14:41 | 50.55771 | 19.61200 | 4932 ft | 180 kts | 126° |
| 2026-05-07 14:42 | 50.54939 | 19.62597 | 4965 ft | 174 kts | 148° |
| 2026-05-07 14:42 | 50.53868 | 19.63417 | 4962 ft | 170 kts | 168° |
| 2026-05-07 14:42 | 50.52714 | 19.63739 | 4954 ft | 168 kts | 177° |
| 2026-05-07 14:42 | 50.51550 | 19.63922 | 4952 ft | 168 kts | 179° |
| 2026-05-07 14:43 | 50.50380 | 19.64032 | 4930 ft | 167 kts | 185° |
| 2026-05-07 14:43 | 50.49298 | 19.63508 | 4911 ft | 163 kts | 213° |
| 2026-05-07 14:43 | 50.48471 | 19.62308 | 4963 ft | 162 kts | 236° |
| 2026-05-07 14:43 | 50.47989 | 19.60726 | 4917 ft | 161 kts | 252° |
| 2026-05-07 14:44 | 50.47771 | 19.58999 | 4944 ft | 162 kts | 261° |
| 2026-05-07 14:44 | 50.47663 | 19.57238 | 4970 ft | 162 kts | 264° |
| 2026-05-07 14:44 | 50.47597 | 19.55468 | 4995 ft | 162 kts | 266° |
| 2026-05-07 14:44 | 50.47562 | 19.53699 | 4994 ft | 162 kts | 266° |
| 2026-05-07 14:45 | 50.47544 | 19.51925 | 4995 ft | 162 kts | 267° |
| 2026-05-07 14:45 | 50.47534 | 19.50173 | 5002 ft | 162 kts | 267° |
| 2026-05-07 14:45 | 50.47530 | 19.48410 | 4988 ft | 162 kts | 267° |
| 2026-05-07 14:45 | 50.47530 | 19.46685 | 5001 ft | 155 kts | 268° |
| 2026-05-07 14:46 | 50.47530 | 19.45012 | 5012 ft | 152 kts | 267° |
| 2026-05-07 14:46 | 50.47531 | 19.43360 | 5020 ft | 151 kts | 268° |
| 2026-05-07 14:46 | 50.47540 | 19.41711 | 4881 ft | 150 kts | 270° |
| 2026-05-07 14:46 | 50.47526 | 19.40078 | 4707 ft | 150 kts | 269° |
| 2026-05-07 14:47 | 50.47524 | 19.38440 | 4501 ft | 150 kts | 269° |
| 2026-05-07 14:47 | 50.47533 | 19.36805 | 4299 ft | 150 kts | 270° |
| 2026-05-07 14:47 | 50.47563 | 19.35179 | 4150 ft | 147 kts | 270° |
| 2026-05-07 14:47 | 50.47534 | 19.33560 | 3902 ft | 149 kts | 260° |
| 2026-05-07 14:48 | 50.47507 | 19.31938 | 3679 ft | 149 kts | 274° |
| 2026-05-07 14:48 | 50.47555 | 19.30312 | 3481 ft | 150 kts | 269° |
| 2026-05-07 14:48 | 50.47558 | 19.28698 | 3310 ft | 149 kts | 269° |
| 2026-05-07 14:48 | 50.47563 | 19.27066 | 3127 ft | 149 kts | 268° |
| 2026-05-07 14:49 | 50.47564 | 19.26693 | 3087 ft | 149 kts | 268° |
| 2026-05-07 14:49 | 50.47564 | 19.25071 | 2890 ft | 150 kts | 270° |
| 2026-05-07 14:49 | 50.47569 | 19.23423 | 2692 ft | 151 kts | 270° |
| 2026-05-07 14:49 | 50.47573 | 19.21789 | 2494 ft | 148 kts | 270° |
| 2026-05-07 14:50 | 50.47576 | 19.20184 | 2302 ft | 147 kts | 271° |
| 2026-05-07 14:50 | 50.47581 | 19.18574 | 2105 ft | 147 kts | 271° |
| 2026-05-07 14:50 | 50.47580 | 19.17058 | 1959 ft | 131 kts | 271° |
| 2026-05-07 14:50 | 50.47582 | 19.15690 | 1722 ft | 121 kts | 273° |
| 2026-05-07 14:51 | 50.47613 | 19.14354 | 1455 ft | 125 kts | 272° |
| 2026-05-07 14:51 | 50.47613 | 19.12984 | 1298 ft | 128 kts | 270° |
| 2026-05-07 14:51 | 50.47593 | 19.11556 | 1170 ft | 135 kts | 271° |
| 2026-05-07 14:51 | 50.47601 | 19.10042 | 1058 ft | 144 kts | 270° |
| 2026-05-07 14:52 | 50.47602 | 19.08602 | 1001 ft | 121 kts | 271° |
| 2026-05-07 14:52 | 50.47606 | 19.07425 | 990 ft | 93 kts | 270° |
| 2026-05-07 14:52 | 50.47606 | 19.06654 | 989 ft | 60 kts | 271° |
| 2026-05-07 14:52 | 50.47605 | 19.06088 | 987 ft | 28 kts | 264° |
| 2026-05-07 14:53 | 50.47479 | 19.05988 | 978 ft | 21 kts | 168° |
| 2026-05-07 14:53 | 50.47431 | 19.06155 | 978 ft | 19 kts | 89° |
| 2026-05-07 14:53 | 50.47431 | 19.06363 | 980 ft | 19 kts | 87° |
| 2026-05-07 14:53 | 50.47420 | 19.06579 | 982 ft | 19 kts | 122° |
| 2026-05-07 14:54 | 50.47363 | 19.06621 | 982 ft | 9 kts | 181° |
| 2026-05-07 14:54 | 50.47300 | 19.06620 | 989 ft | 2 kts | 180° |
| 2026-05-07 14:54 | 50.47299 | 19.06620 | 988 ft | 0 kts | 180° |
| 2026-05-07 14:54 | 50.47298 | 19.06620 | 988 ft | 1 kts | 180° |
| 2026-05-07 14:55 | 50.47269 | 19.06623 | 982 ft | 7 kts | 169° |
| 2026-05-07 14:55 | 50.47240 | 19.06682 | 984 ft | 8 kts | 96° |
| 2026-05-07 14:55 | 50.47239 | 19.06771 | 984 ft | 8 kts | 90° |
| 2026-05-07 14:55 | 50.47238 | 19.06822 | 984 ft | 5 kts | 92° |
| 2026-05-07 14:56 | 50.47235 | 19.06980 | 991 ft | 22 kts | 90° |
| 2026-05-07 14:56 | 50.47235 | 19.07008 | 991 ft | 1 kts | 90° |
| 2026-05-07 14:56 | 50.47235 | 19.07044 | 987 ft | 6 kts | 90° |
| 2026-05-07 14:56 | 50.47223 | 19.07142 | 991 ft | 12 kts | 133° |
| 2026-05-07 14:57 | 50.47175 | 19.07156 | 994 ft | 0 kts | 180° |
| 2026-05-07 14:58 | 50.47168 | 19.07151 | 990 ft | 0 kts | 176° |